Hauptseite
METAR-TAF:

METAR-TAF

Flughäfen :

Bohrplattform

Sleipner, Norwegen

Breite: 58-22-00N, Länge: 001-54-25E, Höhe: 50 m

Beobachtung

Neuester Wetterbericht von vor 33 Minuten, um 01:20 UTC
Wind 19 kt aus West
Temperatur 5°C
Luftfeuchtigkeit 81%
Luftdruck 1012 hPa
Sichtweite 10 km oder mehr

METAR: ENSL 240120Z AUTO 27019KT 9999NDV NCD 05/02 Q1012 W03/S5

Zeit: 02:53 (01:53 UTC)


TAF: fehlend

Wetterbeobachtungen und Prognosen von mehr als 4000 Flughäfen (METAR und TAF Bericht).

Die verfügbaren Stationen werden durch gelbe und rote Markierungen auf der Karte dargestellt.

Führen Sie die Maus auf sie, um den Namen der Station zu sehen.

Darauf klicken, um die Beobachtung von Wetterbeobachtungen und Prognosen zu sehen.

Um die Karte zu ändern : klicken Sie auf den grünen Tasten mit einem schwarzen Kreuz Zum Vergrößern, auf den grünen Button mit einem Gedankenstrich zu verkleinern, oder auf die grünen Pfeile für benachbarte Karten.


METAR-TAF: